Time;durP1;ratioP1;P1;durP2;ratioP2;P2;SDS_P1;SDS_P2;PMS_P1;PMS_P2;Temp;Humidity;BMP_temperature;BMP_pressure;BME280_temperature;BME280_humidity;BME280_pressure;Samples;Min_cycle;Max_cycle;Signal;HPM_P1;HPM_P2
2023/10/25 00:00:58;;;;;;;;;1.50;1.50;;;;;15.21;76.61;99496.19;6185483;23;45503;-67
2023/10/25 00:03:23;;;;;;;;;3.00;1.00;;;;;15.21;76.70;99504.25;6185716;23;45257;-66
2023/10/25 00:05:48;;;;;;;;;1.75;1.75;;;;;15.20;76.97;99506.03;6185458;23;49137;-66
2023/10/25 00:08:14;;;;;;;;;2.25;1.00;;;;;15.19;77.45;99491.75;6185547;23;45254;-66
2023/10/25 00:10:39;;;;;;;;;1.00;1.00;;;;;15.16;77.39;99497.34;6185312;23;46219;-66
2023/10/25 00:13:04;;;;;;;;;3.00;2.00;;;;;15.15;77.83;99481.31;6185302;23;45157;-67
2023/10/25 00:15:31;;;;;;;;;1.50;1.00;;;;;15.11;78.11;99475.31;6185124;23;45189;-66
2023/10/25 00:17:56;;;;;;;;;1.00;1.00;;;;;14.99;78.38;99455.56;6184869;23;45396;-66
2023/10/25 00:20:22;;;;;;;;;1.00;1.00;;;;;14.96;79.08;99444.16;6185487;23;45294;-66
2023/10/25 00:22:47;;;;;;;;;2.75;2.25;;;;;15.03;79.28;99453.50;6183138;23;45692;-66
2023/10/25 00:25:13;;;;;;;;;2.00;2.00;;;;;15.00;79.29;99448.34;6184917;23;45342;-67
2023/10/25 00:27:38;;;;;;;;;1.00;1.00;;;;;14.99;79.98;99444.81;6185039;23;47590;-66
2023/10/25 00:30:04;;;;;;;;;1.00;1.00;;;;;15.00;80.18;99451.03;6185191;23;45638;-67
2023/10/25 00:32:29;;;;;;;;;1.00;1.00;;;;;14.93;80.38;99452.44;6184884;23;45299;-66
2023/10/25 00:34:54;;;;;;;;;2.75;1.50;;;;;14.98;80.89;99456.53;6185321;23;45311;-66
2023/10/25 00:37:20;;;;;;;;;1.00;1.00;;;;;14.99;80.98;99463.63;6184847;23;56642;-66
2023/10/25 00:39:45;;;;;;;;;2.50;1.00;;;;;14.98;81.24;99455.66;6182234;23;49257;-66
2023/10/25 00:42:10;;;;;;;;;2.75;2.00;;;;;14.94;81.40;99440.75;6185015;23;45394;-66
2023/10/25 00:44:36;;;;;;;;;2.50;1.50;;;;;14.95;81.45;99429.88;6157911;23;45511;-66
2023/10/25 00:47:02;;;;;;;;;2.00;1.25;;;;;14.75;81.49;99395.50;6185394;23;45419;-66
2023/10/25 00:49:28;;;;;;;;;4.00;2.00;;;;;14.87;81.85;99418.81;6185228;23;46433;-66
2023/10/25 00:51:55;;;;;;;;;1.75;0.50;;;;;14.89;82.13;99413.34;6185253;23;45375;-66
2023/10/25 00:54:21;;;;;;;;;1.00;1.00;;;;;14.91;82.44;99431.06;6185080;23;45256;-66
2023/10/25 00:56:48;;;;;;;;;2.25;1.00;;;;;14.87;82.89;99417.94;6207878;22;45462;-66
2023/10/25 00:59:15;;;;;;;;;2.00;1.25;;;;;14.88;83.23;99417.84;6185483;23;45462;-66
2023/10/25 01:01:41;;;;;;;;;1.25;1.00;;;;;14.84;82.74;99402.06;6208683;22;45545;-67
2023/10/25 01:04:06;;;;;;;;;2.50;1.25;;;;;14.80;83.93;99393.34;6186217;23;45313;-66
2023/10/25 01:06:32;;;;;;;;;1.00;1.00;;;;;14.82;84.09;99394.97;6185824;23;54749;-66
2023/10/25 01:08:57;;;;;;;;;2.00;1.25;;;;;14.86;84.04;99389.38;6185933;23;48606;-66
2023/10/25 01:11:24;;;;;;;;;1.00;1.00;;;;;14.83;84.14;99393.13;6186421;23;45331;-66
2023/10/25 01:13:49;;;;;;;;;1.25;1.25;;;;;14.79;84.23;99378.22;6186430;23;45414;-66
2023/10/25 01:16:14;;;;;;;;;0.00;0.00;;;;;14.79;84.72;99368.31;6186337;23;51432;-66
2023/10/25 01:18:40;;;;;;;;;1.00;1.00;;;;;14.72;84.84;99353.63;6185794;23;46154;-66
2023/10/25 01:21:05;;;;;;;;;3.00;2.00;;;;;14.75;85.16;99349.84;6185763;23;45256;-66
2023/10/25 01:23:30;;;;;;;;;1.25;1.00;;;;;14.71;84.75;99338.47;6185813;23;45246;-66
2023/10/25 01:25:56;;;;;;;;;1.25;1.25;;;;;14.72;85.09;99337.50;6186732;23;45237;-66
2023/10/25 01:28:22;;;;;;;;;0.75;0.75;;;;;14.68;85.20;99324.41;6186576;23;46489;-66
2023/10/25 01:30:47;;;;;;;;;2.00;2.00;;;;;14.70;85.00;99311.72;6186482;23;45165;-66
2023/10/25 01:33:12;;;;;;;;;2.00;2.00;;;;;14.64;85.22;99305.81;6186403;23;45185;-66
2023/10/25 01:35:38;;;;;;;;;1.25;1.25;;;;;14.60;85.66;99288.22;6186144;23;51730;-66
2023/10/25 01:38:03;;;;;;;;;2.25;0.50;;;;;14.63;85.99;99279.06;6185643;23;46042;-66
2023/10/25 01:40:29;;;;;;;;;2.00;1.00;;;;;14.57;86.16;99274.13;6186423;23;45343;-66
2023/10/25 01:42:54;;;;;;;;;1.25;1.00;;;;;14.55;86.25;99268.88;6186471;23;45317;-66
2023/10/25 01:45:24;;;;;;;;;2.50;1.25;;;;;14.50;86.57;99267.47;6185679;23;45368;-66
2023/10/25 01:47:50;;;;;;;;;1.00;1.00;;;;;14.49;86.75;99268.47;6185762;23;45316;-66
2023/10/25 01:50:15;;;;;;;;;1.25;0.50;;;;;14.53;86.42;99270.78;6184713;23;45309;-66
2023/10/25 01:52:41;;;;;;;;;1.00;1.00;;;;;14.48;86.81;99264.03;6186155;23;45486;-66
2023/10/25 01:55:07;;;;;;;;;1.00;1.00;;;;;14.45;86.54;99236.47;6185998;23;45423;-66
2023/10/25 01:57:33;;;;;;;;;1.25;1.25;;;;;14.41;86.75;99239.47;6185451;23;46080;-66
2023/10/25 01:59:58;;;;;;;;;2.50;0.00;;;;;14.34;87.12;99219.41;6186303;23;45252;-66
2023/10/25 02:02:24;;;;;;;;;2.00;2.00;;;;;14.36;87.30;99220.16;6186529;23;45538;-66
2023/10/25 02:04:49;;;;;;;;;1.00;1.00;;;;;14.25;87.36;99210.22;6158909;23;55379;-66
2023/10/25 02:07:14;;;;;;;;;1.00;1.00;;;;;14.24;87.76;99211.16;6185988;23;45585;-66
2023/10/25 02:09:39;;;;;;;;;1.00;1.00;;;;;14.21;87.82;99197.97;6185777;23;45223;-66
2023/10/25 02:12:05;;;;;;;;;0.25;0.25;;;;;14.25;88.15;99199.47;6185610;23;51910;-67
2023/10/25 02:14:31;;;;;;;;;0.75;0.75;;;;;14.19;88.04;99181.97;6185925;23;45812;-67
2023/10/25 02:16:57;;;;;;;;;1.00;0.00;;;;;14.18;88.48;99182.94;6186033;23;45280;-66
2023/10/25 02:19:22;;;;;;;;;1.00;1.00;;;;;14.18;88.34;99176.72;6185442;23;45559;-66
2023/10/25 02:21:47;;;;;;;;;1.00;1.00;;;;;14.22;88.79;99175.53;6186114;23;45265;-66
2023/10/25 02:24:15;;;;;;;;;0.50;0.50;;;;;14.19;88.76;99160.50;6185481;23;45312;-66
2023/10/25 02:26:42;;;;;;;;;1.00;1.00;;;;;14.24;88.96;99171.75;6185992;23;46072;-66
2023/10/25 02:29:08;;;;;;;;;1.00;1.00;;;;;14.19;89.06;99148.91;6185533;23;45186;-66
2023/10/25 02:31:35;;;;;;;;;1.00;1.00;;;;;14.18;89.13;99140.03;6186434;23;45331;-66
2023/10/25 02:34:00;;;;;;;;;0.00;0.00;;;;;14.24;89.63;99149.44;6185827;23;45470;-66
2023/10/25 02:36:25;;;;;;;;;1.50;1.50;;;;;14.27;89.73;99144.69;6184656;23;46488;-66
2023/10/25 02:38:51;;;;;;;;;0.00;0.00;;;;;14.00;89.54;99085.88;6185615;23;45431;-66
2023/10/25 02:41:16;;;;;;;;;0.00;0.00;;;;;14.19;89.95;99117.56;6158962;23;45432;-66
2023/10/25 02:43:42;;;;;;;;;1.00;1.00;;;;;14.27;90.20;99114.31;6185418;23;46394;-66
2023/10/25 02:46:12;;;;;;;;;0.75;0.75;;;;;14.17;90.00;99092.69;6186010;23;46125;-66
2023/10/25 02:48:38;;;;;;;;;1.00;1.00;;;;;14.17;90.14;99081.94;6185396;23;45236;-66
2023/10/25 02:51:04;;;;;;;;;1.00;1.00;;;;;14.28;90.43;99091.88;6186133;23;45278;-66
2023/10/25 02:53:30;;;;;;;;;0.25;0.25;;;;;14.22;90.42;99082.44;6185747;23;45593;-66
2023/10/25 02:56:00;;;;;;;;;1.50;0.25;;;;;14.31;90.45;99094.31;6185954;23;45363;-66
2023/10/25 02:58:25;;;;;;;;;0.00;0.00;;;;;14.32;90.62;99084.47;6185831;23;45232;-66
2023/10/25 03:00:50;;;;;;;;;1.00;1.00;;;;;14.32;90.77;99088.00;6185870;23;45232;-66
2023/10/25 03:03:16;;;;;;;;;1.00;0.00;;;;;14.32;90.77;99076.41;6185638;23;45256;-66
2023/10/25 03:05:41;;;;;;;;;1.50;1.00;;;;;14.30;91.06;99076.53;6185019;23;64207;-67
2023/10/25 03:08:06;;;;;;;;;1.00;1.00;;;;;14.23;91.03;99061.84;6185617;23;45296;-66
2023/10/25 03:10:32;;;;;;;;;1.50;0.75;;;;;14.27;91.28;99058.81;6159204;23;45416;-67
2023/10/25 03:12:57;;;;;;;;;0.75;0.75;;;;;14.22;91.41;99063.66;6185838;23;45421;-66
2023/10/25 03:15:22;;;;;;;;;1.00;0.00;;;;;14.21;91.70;99053.91;6185451;23;45276;-66
2023/10/25 03:17:48;;;;;;;;;2.00;1.00;;;;;14.18;91.67;99038.06;6158856;23;45235;-66
2023/10/25 03:20:13;;;;;;;;;0.75;0.75;;;;;14.25;91.86;99041.13;6185854;23;45351;-66
2023/10/25 03:22:38;;;;;;;;;1.00;1.00;;;;;14.24;92.32;99044.78;6184394;23;45417;-66
2023/10/25 03:25:04;;;;;;;;;1.00;1.00;;;;;14.22;92.21;99038.66;6185308;23;49049;-66
2023/10/25 03:27:29;;;;;;;;;1.00;1.00;;;;;14.20;92.06;99040.59;6185624;23;45325;-66
2023/10/25 03:29:55;;;;;;;;;2.00;0.00;;;;;14.23;92.71;99035.00;6185921;23;45241;-66
2023/10/25 03:32:20;;;;;;;;;1.00;1.00;;;;;14.27;92.45;99028.44;6158716;23;45277;-66
2023/10/25 03:34:45;;;;;;;;;1.00;1.00;;;;;14.29;92.83;99022.97;6185690;23;46386;-66
2023/10/25 03:37:11;;;;;;;;;0.00;0.00;;;;;14.29;92.89;99015.75;6183447;23;45791;-66
2023/10/25 03:39:36;;;;;;;;;2.25;1.00;;;;;14.29;93.16;99021.13;6185693;23;45573;-66
2023/10/25 03:42:03;;;;;;;;;1.00;1.00;;;;;14.21;93.21;99007.44;6185059;23;45293;-66
2023/10/25 03:44:29;;;;;;;;;1.00;1.00;;;;;14.23;93.28;99000.09;6185108;23;45412;-66
2023/10/25 03:46:54;;;;;;;;;1.00;1.00;;;;;14.26;93.56;99006.09;6185465;23;45254;-66
2023/10/25 03:49:20;;;;;;;;;2.00;1.00;;;;;14.18;93.85;98984.38;6185498;23;45302;-66
2023/10/25 03:51:45;;;;;;;;;1.00;1.00;;;;;14.30;94.16;98987.09;6185284;23;45319;-66
2023/10/25 03:54:10;;;;;;;;;1.00;1.00;;;;;14.22;94.28;98968.91;6184810;23;55990;-66
2023/10/25 03:56:36;;;;;;;;;1.00;1.00;;;;;14.34;94.16;98980.53;6185204;23;45162;-67
2023/10/25 03:59:01;;;;;;;;;1.25;1.25;;;;;14.34;94.10;98977.84;6185694;23;45241;-66
2023/10/25 04:01:27;;;;;;;;;1.00;0.00;;;;;14.32;94.04;98963.69;6184767;23;45685;-66
2023/10/25 04:03:52;;;;;;;;;1.25;1.00;;;;;14.36;94.41;98962.47;6184983;23;45260;-66
2023/10/25 04:06:17;;;;;;;;;1.00;1.00;;;;;14.00;94.43;98894.53;6185609;23;45237;-66
2023/10/25 04:08:43;;;;;;;;;3.00;2.00;;;;;14.34;94.80;98951.00;6158474;23;45284;-66
2023/10/25 04:11:08;;;;;;;;;2.00;1.00;;;;;14.29;94.91;98940.63;6185299;23;45398;-67
2023/10/25 04:13:33;;;;;;;;;0.50;0.00;;;;;14.36;94.63;98944.53;6184221;23;46159;-66
2023/10/25 04:16:00;;;;;;;;;1.25;1.25;;;;;14.34;95.07;98938.44;6185214;23;45235;-66
2023/10/25 04:18:30;;;;;;;;;0.25;0.25;;;;;14.35;95.02;98931.22;6185451;23;45318;-66
2023/10/25 04:20:56;;;;;;;;;0.00;0.00;;;;;14.39;95.34;98933.56;6185234;23;45201;-66
2023/10/25 04:23:23;;;;;;;;;1.00;1.00;;;;;14.38;95.46;98925.63;6184259;23;46578;-66
2023/10/25 04:25:49;;;;;;;;;1.00;1.00;;;;;14.40;95.38;98923.66;6185205;23;45478;-66
2023/10/25 04:28:16;;;;;;;;;1.25;1.00;;;;;14.46;95.73;98924.06;6185796;23;45274;-66
2023/10/25 04:30:41;;;;;;;;;0.75;0.75;;;;;14.43;95.80;98912.69;6184960;23;45411;-66
2023/10/25 04:33:07;;;;;;;;;1.50;1.50;;;;;14.48;95.78;98905.13;6158617;23;45326;-66
2023/10/25 04:35:32;;;;;;;;;1.00;1.00;;;;;14.46;95.80;98902.56;6186464;23;45264;-66
2023/10/25 04:37:58;;;;;;;;;1.00;1.00;;;;;14.54;95.95;98906.50;6186496;23;45301;-66
2023/10/25 04:40:23;;;;;;;;;1.00;1.00;;;;;14.44;95.83;98882.22;6186574;23;45399;-66
2023/10/25 04:42:53;;;;;;;;;2.00;2.00;;;;;14.55;95.87;98898.34;6186324;23;45919;-66
2023/10/25 04:45:22;;;;;;;;;1.00;1.00;;;;;14.56;96.47;98888.44;6184900;23;45356;-66
2023/10/25 04:47:50;;;;;;;;;1.25;1.25;;;;;14.55;96.13;98890.28;6185440;23;45344;-66
2023/10/25 04:50:17;;;;;;;;;1.25;1.25;;;;;14.58;96.35;98892.75;6186097;23;45201;-66
2023/10/25 04:52:42;;;;;;;;;2.75;1.25;;;;;14.53;96.33;98877.94;6185951;23;45282;-66
2023/10/25 04:55:08;;;;;;;;;1.00;1.00;;;;;14.54;96.70;98893.09;6186146;23;45242;-66
2023/10/25 04:57:34;;;;;;;;;2.00;1.00;;;;;14.39;96.85;98860.25;6185550;23;45439;-73
2023/10/25 05:00:00;;;;;;;;;1.00;1.00;;;;;14.59;96.96;98883.72;6183452;23;45550;-71
2023/10/25 05:02:26;;;;;;;;;3.25;2.50;;;;;14.64;96.94;98886.03;6185680;23;45352;-71
2023/10/25 05:04:51;;;;;;;;;2.50;2.50;;;;;14.64;96.63;98878.00;6185520;23;59304;-71
2023/10/25 05:07:16;;;;;;;;;3.00;2.00;;;;;14.73;96.76;98881.78;6185405;23;45241;-71
2023/10/25 05:09:42;;;;;;;;;2.00;1.25;;;;;14.72;96.83;98883.63;6185885;23;45323;-70
2023/10/25 05:12:10;;;;;;;;;1.00;1.00;;;;;14.74;96.95;98876.28;6185215;23;45971;-70
2023/10/25 05:14:36;;;;;;;;;2.00;2.00;;;;;14.83;96.77;98882.75;6185750;23;45245;-70
2023/10/25 05:17:02;;;;;;;;;2.00;2.00;;;;;14.86;97.19;98885.19;6185305;23;45730;-70
2023/10/25 05:19:28;;;;;;;;;1.50;1.50;;;;;14.82;97.11;98881.91;6209174;22;45261;-70
2023/10/25 05:21:55;;;;;;;;;2.00;2.00;;;;;14.85;97.26;98878.13;6159336;23;45913;-70
2023/10/25 05:24:21;;;;;;;;;2.00;2.00;;;;;14.90;97.18;98878.63;6185752;23;45250;-70
2023/10/25 05:26:47;;;;;;;;;2.00;2.00;;;;;14.89;97.20;98871.53;6186124;23;45388;-70
2023/10/25 05:29:12;;;;;;;;;2.00;2.00;;;;;14.94;97.47;98873.84;6158664;23;45501;-71
2023/10/25 05:31:42;;;;;;;;;3.75;3.75;;;;;14.95;97.32;98867.47;6185577;23;47080;-70
2023/10/25 05:34:08;;;;;;;;;2.50;1.75;;;;;14.95;97.06;98859.41;6185050;23;45513;-70
2023/10/25 05:36:34;;;;;;;;;3.00;2.00;;;;;15.00;97.23;98865.28;6186312;23;45234;-71
2023/10/25 05:39:00;;;;;;;;;2.00;2.00;;;;;15.01;97.64;98861.63;6185293;23;45384;-66
2023/10/25 05:41:29;;;;;;;;;2.50;1.75;;;;;15.03;97.55;98854.28;6184421;23;46511;-66
2023/10/25 05:44:06;;;;;;;;;3.00;2.00;;;;;14.85;97.51;98820.84;6184643;23;45320;-66
2023/10/25 05:46:32;;;;;;;;;2.25;1.25;;;;;15.03;97.74;98842.69;6184092;23;45322;-66
2023/10/25 05:48:57;;;;;;;;;3.00;3.00;;;;;15.08;97.96;98845.84;6185222;23;53424;-66
2023/10/25 05:51:23;;;;;;;;;2.25;2.00;;;;;15.11;97.94;98842.91;6185642;23;46210;-66
2023/10/25 05:53:49;;;;;;;;;1.00;1.00;;;;;15.14;97.97;98848.91;6185369;23;45392;-66
2023/10/25 05:56:15;;;;;;;;;1.50;1.50;;;;;15.17;97.98;98862.09;6159351;23;45362;-66
2023/10/25 05:58:41;;;;;;;;;2.00;1.00;;;;;15.21;97.96;98860.00;6185298;23;45316;-66
2023/10/25 06:01:09;;;;;;;;;1.00;1.00;;;;;15.25;97.81;98861.47;6185644;23;45876;-66
2023/10/25 06:03:35;;;;;;;;;1.00;1.00;;;;;15.27;97.78;98862.19;6185757;23;45268;-66
2023/10/25 06:06:01;;;;;;;;;4.25;2.25;;;;;15.28;97.93;98868.41;6184201;23;45305;-67
2023/10/25 06:08:27;;;;;;;;;2.00;2.00;;;;;15.30;97.95;98863.75;6185211;23;45214;-66
2023/10/25 06:10:54;;;;;;;;;3.00;3.00;;;;;15.33;97.92;98874.28;6185809;23;45238;-67
2023/10/25 06:13:19;;;;;;;;;2.75;1.75;;;;;15.32;97.98;98868.03;6185353;23;45446;-68
2023/10/25 06:15:45;;;;;;;;;3.00;2.00;;;;;15.36;97.91;98877.56;6186347;23;45376;-68
2023/10/25 06:18:11;;;;;;;;;2.50;2.00;;;;;15.40;97.85;98869.25;6185745;23;45556;-68
2023/10/25 06:20:36;;;;;;;;;2.50;1.00;;;;;15.42;97.78;98870.84;6184848;23;46204;-68
2023/10/25 06:23:02;;;;;;;;;2.00;2.00;;;;;15.38;98.25;98864.88;6182753;23;45330;-68
2023/10/25 06:25:29;;;;;;;;;2.75;2.25;;;;;15.44;98.14;98885.00;6185335;23;45309;-68
2023/10/25 06:27:57;;;;;;;;;2.75;1.00;;;;;15.37;98.21;98860.47;6185927;23;45214;-68
2023/10/25 06:30:22;;;;;;;;;4.75;3.50;;;;;15.46;98.06;98874.97;6158724;23;46285;-68
2023/10/25 06:32:48;;;;;;;;;2.00;2.00;;;;;15.53;98.01;98875.31;6208786;22;45267;-68
2023/10/25 06:35:13;;;;;;;;;1.75;1.75;;;;;15.46;97.83;98866.06;6184914;23;47691;-67
2023/10/25 06:37:39;;;;;;;;;3.00;2.00;;;;;15.56;98.00;98885.81;6185769;23;45392;-68
2023/10/25 06:40:06;;;;;;;;;1.00;1.00;;;;;15.57;97.98;98896.44;6185215;23;45407;-68
2023/10/25 06:42:32;;;;;;;;;4.00;4.00;;;;;15.40;98.08;98864.72;6183577;23;45627;-68
2023/10/25 06:44:58;;;;;;;;;1.00;1.00;;;;;15.50;98.15;98875.56;6184961;23;45324;-67
2023/10/25 06:47:25;;;;;;;;;5.00;2.50;;;;;15.51;98.10;98886.19;6185241;23;45324;-67
2023/10/25 06:49:51;;;;;;;;;2.00;2.00;;;;;15.55;98.33;98889.47;6184545;23;45998;-67
2023/10/25 06:52:17;;;;;;;;;1.25;1.00;;;;;15.62;98.07;98897.91;6185677;23;45415;-67
2023/10/25 06:54:42;;;;;;;;;2.00;2.00;;;;;15.42;97.98;98875.34;6184950;23;45363;-67
2023/10/25 06:57:08;;;;;;;;;1.00;1.00;;;;;15.66;97.86;98912.81;6184337;23;45250;-68
2023/10/25 06:59:34;;;;;;;;;1.00;1.00;;;;;15.67;97.91;98920.75;6183744;23;45346;-68
2023/10/25 07:02:31;;;;;;;;;0.50;0.50;;;;;15.60;97.62;98905.25;6157695;23;45690;-67
2023/10/25 07:05:18;;;;;;;;;1.00;1.00;;;;;15.45;97.52;98878.66;6185924;23;45512;-68
2023/10/25 07:07:45;;;;;;;;;2.25;1.00;;;;;15.61;97.57;98897.06;6183761;23;45636;-68
2023/10/25 07:10:11;;;;;;;;;3.00;1.00;;;;;15.69;97.59;98913.41;6184625;23;45227;-67
2023/10/25 07:12:36;;;;;;;;;3.50;1.25;;;;;15.71;97.50;98915.97;6185714;23;45514;-67
2023/10/25 07:15:02;;;;;;;;;1.00;1.00;;;;;15.63;97.44;98911.22;6185073;23;45193;-66
2023/10/25 07:17:28;;;;;;;;;0.00;0.00;;;;;15.67;97.54;98915.38;6180149;23;45394;-66
2023/10/25 07:19:54;;;;;;;;;0.00;0.00;;;;;15.67;96.82;98919.88;6184444;23;45347;-66
2023/10/25 07:22:19;;;;;;;;;0.50;0.50;;;;;15.65;96.82;98905.72;6183933;23;45190;-66
2023/10/25 07:24:45;;;;;;;;;0.00;0.00;;;;;15.65;96.88;98911.09;6185727;23;45961;-66
2023/10/25 07:27:10;;;;;;;;;0.00;0.00;;;;;15.76;96.43;98927.25;6185612;23;45437;-66
2023/10/25 07:29:38;;;;;;;;;0.00;0.00;;;;;15.80;96.71;98930.53;6185090;23;45454;-66
2023/10/25 07:32:04;;;;;;;;;0.75;0.00;;;;;15.78;96.54;98929.81;6185657;23;45456;-66
2023/10/25 07:34:29;;;;;;;;;1.00;1.00;;;;;15.77;96.74;98928.97;6185625;23;45472;-66
2023/10/25 07:36:54;;;;;;;;;0.00;0.00;;;;;15.69;96.75;98926.00;6185110;23;45257;-66
2023/10/25 07:39:21;;;;;;;;;0.00;0.00;;;;;15.78;96.70;98938.72;6185048;23;52183;-66
2023/10/25 07:41:46;;;;;;;;;0.50;0.50;;;;;15.80;96.73;98943.97;6185085;23;45362;-66
2023/10/25 07:44:11;;;;;;;;;0.00;0.00;;;;;15.79;96.53;98936.91;6185237;23;45366;-67
2023/10/25 07:46:37;;;;;;;;;0.00;0.00;;;;;15.72;96.59;98923.91;6185013;23;45743;-66
2023/10/25 07:49:03;;;;;;;;;1.00;1.00;;;;;15.84;96.76;98943.59;6158455;23;46463;-66
2023/10/25 07:51:28;;;;;;;;;0.50;0.50;;;;;15.81;96.70;98930.41;6185402;23;45249;-66
2023/10/25 07:53:53;;;;;;;;;0.50;0.50;;;;;15.81;96.49;98930.41;6157957;23;45293;-66
2023/10/25 07:56:19;;;;;;;;;0.00;0.00;;;;;15.77;96.44;98920.00;6185069;23;51756;-66
2023/10/25 07:58:45;;;;;;;;;0.00;0.00;;;;;15.83;96.47;98931.13;6181936;23;46905;-66
2023/10/25 08:01:12;;;;;;;;;0.00;0.00;;;;;15.83;96.22;98939.19;6184740;23;45557;-66
2023/10/25 08:03:37;;;;;;;;;1.00;0.00;;;;;15.82;96.39;98934.81;6208486;22;45409;-66
2023/10/25 08:06:02;;;;;;;;;2.00;0.00;;;;;15.87;96.19;98940.66;6184691;23;49194;-66
2023/10/25 08:08:28;;;;;;;;;0.00;0.00;;;;;15.88;96.06;98936.13;6183882;23;46056;-66
2023/10/25 08:11:04;;;;;;;;;0.00;0.00;;;;;15.87;96.09;98942.47;6185255;23;45353;-66
2023/10/25 08:13:30;;;;;;;;;0.00;0.00;;;;;15.89;96.05;98941.38;6183254;23;45361;-66
2023/10/25 08:16:00;;;;;;;;;1.00;1.00;;;;;15.87;96.23;98948.72;6184788;23;45281;-66
2023/10/25 08:18:30;;;;;;;;;1.75;0.00;;;;;15.87;96.12;98951.44;6184703;23;45534;-65
2023/10/25 08:20:56;;;;;;;;;1.00;1.00;;;;;15.87;95.61;98945.16;6184654;23;45413;-66
2023/10/25 08:23:22;;;;;;;;;4.00;2.00;;;;;15.85;95.45;98952.50;6185022;23;45397;-65
2023/10/25 08:25:48;;;;;;;;;0.50;0.50;;;;;15.91;95.75;98957.41;6185185;23;45472;-65
2023/10/25 08:28:14;;;;;;;;;1.00;1.00;;;;;15.93;95.81;98955.44;6184950;23;45636;-65
2023/10/25 08:30:39;;;;;;;;;1.25;1.00;;;;;15.94;95.68;98965.22;6183742;23;45259;-65
2023/10/25 08:33:05;;;;;;;;;0.50;0.50;;;;;15.85;95.28;98947.97;6184768;23;45337;-65
2023/10/25 08:35:30;;;;;;;;;0.00;0.00;;;;;15.85;95.02;98947.97;6184962;23;45497;-65
2023/10/25 08:37:55;;;;;;;;;0.25;0.25;;;;;15.91;94.96;98952.00;6184144;23;45258;-65
2023/10/25 08:40:23;;;;;;;;;1.00;1.00;;;;;15.91;94.84;98952.88;6157125;23;45796;-65
2023/10/25 08:42:49;;;;;;;;;0.25;0.00;;;;;15.96;95.01;98960.56;6158226;23;45350;-66
2023/10/25 08:45:16;;;;;;;;;0.00;0.00;;;;;15.94;94.82;98959.84;6184386;23;45442;-66
2023/10/25 08:47:41;;;;;;;;;1.00;1.00;;;;;15.98;95.18;98965.81;6208333;22;47123;-66
2023/10/25 08:50:07;;;;;;;;;0.50;0.50;;;;;15.99;95.09;98957.63;6184385;23;45367;-66
2023/10/25 08:52:37;;;;;;;;;0.25;0.25;;;;;15.99;95.28;98965.69;6184160;23;45258;-66
2023/10/25 08:55:03;;;;;;;;;0.50;0.50;;;;;16.00;94.62;98969.22;6184580;23;45333;-66
2023/10/25 08:57:30;;;;;;;;;1.00;0.00;;;;;15.99;94.81;98962.13;6183648;23;46332;-66
2023/10/25 08:59:55;;;;;;;;;1.00;1.00;;;;;15.94;94.61;98957.16;6184418;23;45409;-66
2023/10/25 09:02:21;;;;;;;;;0.00;0.00;;;;;15.93;95.15;98950.88;6184754;23;45309;-66
2023/10/25 09:04:59;;;;;;;;;1.00;1.00;;;;;15.97;94.50;98953.34;6184613;23;45375;-66
2023/10/25 09:07:33;;;;;;;;;0.75;0.75;;;;;16.00;94.45;98955.78;6183991;23;46081;-66
2023/10/25 09:09:58;;;;;;;;;0.00;0.00;;;;;16.01;94.33;98954.81;6183048;23;45475;-65
2023/10/25 09:12:25;;;;;;;;;1.25;0.00;;;;;16.01;94.43;98950.25;6184497;23;45280;-66
2023/10/25 09:14:50;;;;;;;;;0.00;0.00;;;;;16.05;94.13;98965.16;6184151;23;45341;-66
2023/10/25 09:17:16;;;;;;;;;1.00;1.00;;;;;16.05;94.27;98951.69;6184293;23;45358;-66
2023/10/25 09:19:45;;;;;;;;;0.75;0.75;;;;;16.08;94.18;98942.53;6184092;23;50304;-66
2023/10/25 09:22:30;;;;;;;;;0.50;0.00;;;;;16.14;94.04;98941.16;6185437;23;45321;-66
2023/10/25 09:25:00;;;;;;;;;4.00;2.00;;;;;16.15;94.08;98948.25;6185113;23;45265;-66
2023/10/25 09:27:27;;;;;;;;;1.00;1.00;;;;;16.16;94.50;98948.13;6185618;23;45401;-66
2023/10/25 09:29:53;;;;;;;;;2.00;1.00;;;;;16.18;94.76;98946.16;6184904;23;45458;-66
2023/10/25 09:32:19;;;;;;;;;1.75;1.00;;;;;16.17;94.82;98941.78;6186026;23;45501;-66
2023/10/25 09:34:46;;;;;;;;;0.00;0.00;;;;;16.21;94.77;98942.38;6186100;23;45254;-66
2023/10/25 09:37:12;;;;;;;;;1.00;1.00;;;;;16.23;94.92;98943.91;6183125;23;45506;-65
2023/10/25 09:39:37;;;;;;;;;0.50;0.50;;;;;16.25;95.06;98946.50;6185399;23;45341;-66
2023/10/25 09:42:06;;;;;;;;;2.00;1.75;;;;;16.26;94.79;98940.13;6184646;23;45312;-66
2023/10/25 09:44:38;;;;;;;;;1.00;1.00;;;;;16.26;94.34;98937.44;6184175;23;45323;-66
2023/10/25 09:47:09;;;;;;;;;1.00;1.00;;;;;16.25;94.42;98941.94;6185894;23;45450;-66
2023/10/25 09:49:39;;;;;;;;;0.75;0.75;;;;;16.29;94.17;98947.94;6185401;23;45498;-66
2023/10/25 09:52:06;;;;;;;;;0.75;0.75;;;;;16.31;94.27;98951.38;6186092;23;45193;-65
2023/10/25 09:54:36;;;;;;;;;1.00;1.00;;;;;16.32;93.85;98944.97;6184724;23;45485;-66
2023/10/25 09:57:03;;;;;;;;;1.25;1.00;;;;;16.35;93.41;98944.72;6184830;23;45461;-66
2023/10/25 09:59:34;;;;;;;;;1.00;1.00;;;;;16.27;93.65;98928.34;6159159;23;45458;-66
2023/10/25 10:02:01;;;;;;;;;1.00;1.00;;;;;16.37;93.56;98947.28;6185108;23;45283;-66
2023/10/25 10:04:36;;;;;;;;;0.00;0.00;;;;;16.38;93.38;98943.63;6185444;23;45497;-64
2023/10/25 10:07:11;;;;;;;;;0.50;0.50;;;;;16.38;93.37;98946.31;6184841;23;45559;-65
2023/10/25 10:10:01;;;;;;;;;0.00;0.00;;;;;16.37;93.26;98939.19;6185633;23;45419;-66
2023/10/25 10:12:26;;;;;;;;;0.00;0.00;;;;;16.30;92.81;98937.06;6185181;23;45418;-66
2023/10/25 10:14:52;;;;;;;;;0.00;0.00;;;;;16.32;92.81;98927.97;6182912;23;45253;-66
2023/10/25 10:17:18;;;;;;;;;0.75;0.75;;;;;16.35;92.44;98943.88;6158210;23;47363;-66
2023/10/25 10:19:46;;;;;;;;;0.00;0.00;;;;;16.38;92.28;98940.94;6185737;23;45391;-65
2023/10/25 10:22:13;;;;;;;;;1.00;1.00;;;;;16.37;92.58;98940.09;6185430;23;45257;-66
2023/10/25 10:24:42;;;;;;;;;0.25;0.25;;;;;16.41;92.85;98944.19;6185336;23;45198;-65
2023/10/25 10:27:08;;;;;;;;;2.00;1.00;;;;;16.41;92.32;98927.22;6185271;23;46141;-66
2023/10/25 10:29:33;;;;;;;;;0.00;0.00;;;;;16.44;92.05;98940.41;6185706;23;45548;-66
2023/10/25 10:32:01;;;;;;;;;2.00;1.00;;;;;16.46;92.44;98936.59;6185452;23;45316;-66
2023/10/25 10:34:47;;;;;;;;;1.00;1.00;;;;;16.47;92.28;98937.44;6184946;23;45392;-66
2023/10/25 10:37:21;;;;;;;;;1.50;0.00;;;;;16.43;92.44;98930.63;6185304;23;45232;-66
2023/10/25 10:39:56;;;;;;;;;1.00;1.00;;;;;16.47;92.50;98932.91;6185900;23;45295;-65
2023/10/25 10:42:42;;;;;;;;;0.25;0.25;;;;;16.47;92.70;98924.84;6185626;23;45257;-66
2023/10/25 10:45:12;;;;;;;;;1.00;1.00;;;;;16.46;92.61;98927.66;6184551;23;45471;-66
2023/10/25 10:47:51;;;;;;;;;0.50;0.50;;;;;16.44;92.73;98921.56;6184241;23;46345;-66
2023/10/25 10:50:19;;;;;;;;;1.00;1.00;;;;;16.47;91.99;98924.84;6185006;23;45237;-65
2023/10/25 10:52:46;;;;;;;;;2.50;2.00;;;;;16.42;92.45;98923.50;6184958;23;45270;-66
2023/10/25 10:55:14;;;;;;;;;1.75;1.75;;;;;16.45;92.31;98934.88;6184371;23;45357;-66
2023/10/25 10:57:39;;;;;;;;;2.00;2.00;;;;;16.41;92.19;98935.28;6183602;23;46210;-66
2023/10/25 11:00:08;;;;;;;;;1.50;1.50;;;;;16.39;92.32;98942.63;6185018;23;45341;-65
2023/10/25 11:02:37;;;;;;;;;2.00;2.00;;;;;16.28;92.81;98941.69;6158328;23;45529;-66
2023/10/25 11:05:04;;;;;;;;;1.50;1.50;;;;;16.33;93.02;98949.38;6157595;23;45299;-66
2023/10/25 11:07:30;;;;;;;;;3.00;3.00;;;;;16.29;93.12;98959.56;6183593;23;46035;-65
2023/10/25 11:09:56;;;;;;;;;1.75;1.50;;;;;16.28;93.01;98960.53;6157168;23;45299;-66
2023/10/25 11:12:23;;;;;;;;;1.50;1.50;;;;;16.25;92.76;98963.47;6185545;23;45403;-66
2023/10/25 11:14:48;;;;;;;;;2.50;2.00;;;;;16.25;93.06;98957.25;6184459;23;45605;-66
2023/10/25 11:17:14;;;;;;;;;3.50;2.25;;;;;16.17;93.45;98949.84;6185668;23;45622;-66
2023/10/25 11:19:46;;;;;;;;;2.00;2.00;;;;;16.22;93.51;98958.38;6185240;23;45196;-66
2023/10/25 11:22:11;;;;;;;;;1.00;1.00;;;;;16.20;93.75;98952.25;6184913;23;45497;-66
2023/10/25 11:24:37;;;;;;;;;1.50;1.00;;;;;16.15;93.49;98937.50;6207445;22;45532;-66
2023/10/25 11:27:03;;;;;;;;;2.50;1.75;;;;;16.16;93.48;98947.28;6185798;23;45444;-66
2023/10/25 11:29:31;;;;;;;;;1.00;1.00;;;;;16.16;93.86;98947.28;6185515;23;45478;-66
2023/10/25 11:32:00;;;;;;;;;2.00;2.00;;;;;16.09;94.10;98938.88;6185917;23;45370;-66